Smethwick, United Kingdom
Current Conditions -  °F | °C
As of 3:20 AM on Saturday 20 Dec 2014 (Local Time) from EGBB Reporting Station
Broken Clouds Broken Clouds  
Wind Chill:   Ceiling: 4500
Heat Index:   Visibility: 6mi
Dew Point:   Wind: 13mph
Humidity: 71%   Direction: 260°W
Pressure: 30.15"   Gusts: NA
Location:  52.49°N, 1.97°W
Report Text: EGBB 200320Z 26011KT 9999 BKN045 07/02 Q1021
Loading
Personal Weather Stations






























Interactive Weather Map New forecast layout! Learn more

10-Day Weather Forecast

Advertisements
Track Severe Weather on mobile